Time;durP1;ratioP1;P1;durP2;ratioP2;P2;SDS_P1;SDS_P2;PMS_P1;PMS_P2;Temp;Humidity;BMP_temperature;BMP_pressure;BME280_temperature;BME280_humidity;BME280_pressure;Samples;Min_cycle;Max_cycle;Signal;HPM_P1;HPM_P2
2022/09/25 00:00:42;;;;;;;5.78;4.22;;;;;;;6.61;100.00;99935.17;1658025;86;21083;-66
2022/09/25 00:03:10;;;;;;;8.05;4.25;;;;;;;6.60;100.00;99930.82;1658130;86;21113;-68
2022/09/25 00:05:39;;;;;;;8.28;4.17;;;;;;;6.57;100.00;99929.59;1658067;86;21281;-66
2022/09/25 00:08:07;;;;;;;5.78;4.50;;;;;;;6.55;100.00;99932.69;1657966;84;21070;-64
2022/09/25 00:10:40;;;;;;;4.80;3.60;;;;;;;6.56;100.00;99928.74;1658162;86;22123;-66
2022/09/25 00:13:07;;;;;;;6.78;4.08;;;;;;;6.56;100.00;99935.73;1658169;86;21339;-67
2022/09/25 00:15:33;;;;;;;7.00;3.90;;;;;;;6.57;100.00;99927.83;1658053;86;21115;-67
2022/09/25 00:18:00;;;;;;;5.28;3.75;;;;;;;6.57;100.00;99926.98;1658069;86;22069;-66
2022/09/25 00:20:27;;;;;;;7.17;3.70;;;;;;;6.56;100.00;99926.13;1658184;86;21510;-67
2022/09/25 00:22:54;;;;;;;7.53;3.50;;;;;;;6.56;100.00;99926.58;1658129;86;21170;-67
2022/09/25 00:25:20;;;;;;;4.33;3.45;;;;;;;6.56;100.00;99929.20;1658104;86;21072;-67
2022/09/25 00:27:49;;;;;;;9.95;3.75;;;;;;;6.58;100.00;99933.92;1658083;86;21089;-67
2022/09/25 00:30:15;;;;;;;5.30;3.40;;;;;;;6.59;100.00;99931.73;1658225;86;21077;-67
2022/09/25 00:32:42;;;;;;;6.20;4.08;;;;;;;6.58;100.00;99931.30;1657977;86;21561;-67
2022/09/25 00:35:09;;;;;;;5.05;3.47;;;;;;;6.56;100.00;99925.27;1658051;86;21628;-67
2022/09/25 00:37:35;;;;;;;4.92;3.35;;;;;;;6.56;100.00;99930.51;1657994;86;21530;-67
2022/09/25 00:40:05;;;;;;;6.67;3.52;;;;;;;6.56;100.00;99934.43;1658147;86;21589;-66
2022/09/25 00:42:32;;;;;;;5.08;3.30;;;;;;;6.55;100.00;99936.62;1658125;85;21161;-67
2022/09/25 00:45:03;;;;;;;8.23;4.15;;;;;;;6.55;100.00;99934.00;1657969;86;21109;-66
2022/09/25 00:47:56;;;;;;;6.33;3.55;;;;;;;6.53;100.00;99927.94;1657963;86;21593;-66
2022/09/25 00:50:43;;;;;;;6.60;3.80;;;;;;;6.55;100.00;99930.08;1658247;86;22081;-67
2022/09/25 00:53:14;;;;;;;5.08;3.47;;;;;;;6.53;100.00;99929.25;1646352;86;21073;-66
2022/09/25 00:55:41;;;;;;;4.40;3.52;;;;;;;6.50;100.00;99925.80;1664593;85;21840;-66
2022/09/25 00:58:08;;;;;;;8.18;4.03;;;;;;;6.48;100.00;99931.52;1712830;83;21089;-66
2022/09/25 01:00:35;;;;;;;6.78;4.00;;;;;;;6.47;100.00;99933.73;1712826;82;21097;-67
2022/09/25 01:03:03;;;;;;;5.33;3.37;;;;;;;6.46;100.00;99932.00;1713010;83;21529;-67
2022/09/25 01:05:32;;;;;;;5.42;3.50;;;;;;;6.45;100.00;99928.98;1712883;83;21113;-67
2022/09/25 01:08:07;;;;;;;5.50;3.52;;;;;;;6.42;100.00;99929.06;1702719;82;21204;-67
2022/09/25 01:10:35;;;;;;;5.37;3.65;;;;;;;6.41;100.00;99932.56;1712889;82;21053;-66
2022/09/25 01:13:01;;;;;;;4.72;3.77;;;;;;;6.41;100.00;99930.40;1727079;82;21093;-66
2022/09/25 01:16:07;;;;;;;5.78;3.92;;;;;;;6.39;100.00;99929.12;1713044;83;21034;-67
2022/09/25 01:18:42;;;;;;;5.00;3.75;;;;;;;6.39;100.00;99929.12;1712899;82;21094;-67
2022/09/25 01:21:40;;;;;;;4.55;3.20;;;;;;;6.39;100.00;99930.42;1706535;82;21534;-67
2022/09/25 01:24:15;;;;;;;4.75;3.75;;;;;;;6.39;100.00;99926.95;1712964;82;21097;-67
2022/09/25 01:27:20;;;;;;;5.25;3.70;;;;;;;6.40;100.00;99930.00;1712989;82;21058;-66
2022/09/25 01:30:07;;;;;;;5.08;3.55;;;;;;;6.39;100.00;99929.57;1712832;82;21009;-67
2022/09/25 01:32:54;;;;;;;5.60;3.77;;;;;;;6.35;100.00;99926.19;1713192;83;21163;-66
2022/09/25 01:35:41;;;;;;;5.62;3.58;;;;;;;6.32;100.00;99922.31;1713250;83;21087;-66
2022/09/25 01:38:37;;;;;;;7.65;3.80;;;;;;;6.30;100.00;99925.41;1712961;83;21065;-67
2022/09/25 01:41:30;;;;;;;5.60;3.75;;;;;;;6.28;100.00;99928.50;1713212;82;21046;-66
2022/09/25 01:44:12;;;;;;;4.67;3.30;;;;;;;6.27;100.00;99930.72;1696954;83;21102;-66
2022/09/25 01:46:50;;;;;;;5.05;3.22;;;;;;;6.23;100.00;99929.05;1713181;83;21053;-66
2022/09/25 01:49:30;;;;;;;4.03;2.92;;;;;;;6.19;100.00;99930.02;1713084;82;21148;-67
2022/09/25 01:51:57;;;;;;;5.80;3.42;;;;;;;6.18;100.00;99930.92;1716177;83;21542;-67
2022/09/25 01:54:31;;;;;;;6.42;3.62;;;;;;;6.17;100.00;99925.30;1713649;82;21026;-67
2022/09/25 01:57:08;;;;;;;6.87;3.98;;;;;;;6.14;100.00;99926.20;1713014;82;21091;-64
2022/09/25 01:59:44;;;;;;;5.47;3.90;;;;;;;6.13;100.00;99932.78;1713019;82;21095;-65
2022/09/25 02:02:13;;;;;;;9.65;3.30;;;;;;;6.09;100.00;99935.45;1713106;83;21246;-65
2022/09/25 02:04:53;;;;;;;5.45;3.50;;;;;;;6.08;100.00;99925.89;1678205;85;21085;-66
2022/09/25 02:07:25;;;;;;;5.75;3.70;;;;;;;6.05;100.00;99929.89;1712841;82;21612;-65
2022/09/25 02:09:54;;;;;;;4.60;3.37;;;;;;;6.04;100.00;99929.47;1678322;85;21077;-67
2022/09/25 02:12:33;;;;;;;4.87;3.52;;;;;;;6.02;100.00;99933.86;1678919;85;21022;-67
2022/09/25 02:15:31;;;;;;;5.80;3.67;;;;;;;6.01;100.00;99934.77;1712992;83;21612;-66
2022/09/25 02:21:12;;;;;;;6.87;3.70;;;;;;;5.95;100.00;99930.97;1678686;85;21513;-67
2022/09/25 02:23:52;;;;;;;5.67;3.30;;;;;;;5.90;100.00;99932.80;1711328;82;21789;-67
2022/09/25 02:26:27;;;;;;;5.12;3.40;;;;;;;5.86;100.00;99932.44;1678404;85;21557;-67
2022/09/25 02:28:55;;;;;;;4.60;3.40;;;;;;;5.82;100.00;99931.66;1713276;83;21746;-66
2022/09/25 02:31:28;;;;;;;6.65;3.30;;;;;;;5.80;100.00;99939.12;1713006;83;21089;-67
2022/09/25 02:33:55;;;;;;;5.72;3.67;;;;;;;5.77;100.00;99933.93;1678274;85;21084;-67
2022/09/25 02:36:22;;;;;;;5.58;4.08;;;;;;;5.74;100.00;99935.31;1712904;83;21053;-66
2022/09/25 02:38:50;;;;;;;7.60;4.08;;;;;;;5.70;100.00;99936.26;1678486;85;21052;-67
2022/09/25 02:41:58;;;;;;;5.28;3.98;;;;;;;5.67;100.00;99934.13;1712833;83;21146;-67
2022/09/25 02:44:39;;;;;;;5.87;3.70;;;;;;;5.64;100.00;99934.19;1683442;82;21097;-66
2022/09/25 02:47:31;;;;;;;;;;;;;;;5.60;100.00;99936.44;1680815;85;21069;-67
2022/09/25 02:50:25;;;;;;;6.83;3.45;;;;;;;5.56;100.00;99941.76;1640584;86;20492;-66
2022/09/25 02:53:06;;;;;;;7.35;3.58;;;;;;;5.51;100.00;99939.23;1666334;85;21138;-68
2022/09/25 02:55:36;;;;;;;;;;;;;;;5.50;100.00;99940.14;1680751;85;21092;-67
2022/09/25 02:58:26;;;;;;;5.80;3.45;;;;;;;5.47;100.00;99934.95;1678181;85;20223;-66
2022/09/25 03:00:53;;;;;;;5.80;3.22;;;;;;;5.45;100.00;99934.12;1678228;85;21073;-67
2022/09/25 03:03:22;;;;;;;4.50;3.50;;;;;;;5.41;100.00;99932.48;1678099;85;21053;-66
2022/09/25 03:05:48;;;;;;;4.62;3.70;;;;;;;5.40;100.00;99938.13;1678204;84;21083;-69
2022/09/25 03:11:00;;;;;;;7.92;3.92;;;;;;;5.34;100.00;99938.71;1678068;85;21573;-66
2022/09/25 03:13:32;;;;;;;6.72;4.05;;;;;;;5.28;100.00;99938.81;1678377;85;21106;-66
2022/09/25 03:16:19;;;;;;;6.58;3.72;;;;;;;5.24;100.00;99941.49;1678396;85;21126;-66
2022/09/25 03:18:46;;;;;;;10.18;4.15;;;;;;;5.22;100.00;99942.38;1678429;85;21042;-66
2022/09/25 03:21:13;;;;;;;6.78;4.17;;;;;;;5.19;100.00;99943.75;1678429;85;21160;-67
2022/09/25 03:23:40;;;;;;;5.62;4.12;;;;;;;5.13;100.00;99946.05;1678229;84;21567;-66
2022/09/25 03:26:07;;;;;;;7.58;4.30;;;;;;;5.09;100.00;99944.82;1677961;85;21069;-66
2022/09/25 03:28:33;;;;;;;7.25;4.45;;;;;;;5.08;100.00;99946.55;1678176;85;21077;-66
2022/09/25 03:31:04;;;;;;;7.70;4.87;;;;;;;5.07;100.00;99946.14;1678186;85;21089;-67
2022/09/25 03:33:36;;;;;;;5.63;4.13;;;;;;;5.07;100.00;99943.53;1678441;85;22690;-66
2022/09/25 03:36:19;;;;;;;6.83;4.30;;;;;;;5.04;100.00;99948.36;1676511;85;21093;-67
2022/09/25 03:38:49;;;;;;;6.55;4.28;;;;;;;5.04;100.00;99950.13;1678384;85;21085;-65
2022/09/25 03:41:20;;;;;;;5.53;3.92;;;;;;;5.01;100.00;99955.37;1678146;85;21097;-66
2022/09/25 03:43:50;;;;;;;6.37;4.67;;;;;;;5.00;100.00;99956.27;1678737;85;21081;-67
2022/09/25 03:46:18;;;;;;;7.75;4.60;;;;;;;4.99;100.00;99954.11;1678292;85;21129;-64
2022/09/25 03:48:45;;;;;;;7.05;4.97;;;;;;;4.99;100.00;99953.23;1678307;85;21057;-66
2022/09/25 03:51:12;;;;;;;7.08;4.65;;;;;;;4.98;100.00;99954.13;1677750;85;21121;-68
2022/09/25 03:53:39;;;;;;;7.22;4.95;;;;;;;5.00;100.00;99952.36;1678125;85;21578;-68
2022/09/25 03:56:09;;;;;;;10.98;4.78;;;;;;;4.99;100.00;99955.84;1678339;85;21614;-67
2022/09/25 03:58:36;;;;;;;7.90;4.62;;;;;;;4.98;100.00;99956.73;1678527;85;21650;-66
2022/09/25 04:01:02;;;;;;;7.45;4.80;;;;;;;5.00;100.00;99962.80;1678532;85;21154;-66
2022/09/25 04:03:31;;;;;;;6.50;4.80;;;;;;;4.99;100.00;99955.84;1678402;85;21574;-67
2022/09/25 04:05:59;;;;;;;5.92;4.58;;;;;;;5.01;100.00;99959.28;1678390;84;22111;-67
2022/09/25 04:08:27;;;;;;;6.80;4.92;;;;;;;5.03;100.00;99962.73;1678719;85;21072;-66
2022/09/25 04:10:58;;;;;;;5.90;4.53;;;;;;;5.05;100.00;99972.71;1678348;85;21070;-67
2022/09/25 04:13:29;;;;;;;8.83;4.50;;;;;;;5.05;100.00;99972.71;1678462;85;21077;-67
2022/09/25 04:15:57;;;;;;;9.28;4.70;;;;;;;5.07;100.00;99971.39;1677469;85;21157;-67
2022/09/25 04:18:24;;;;;;;7.10;4.83;;;;;;;5.10;100.00;99965.66;1678427;85;21543;-66
2022/09/25 04:20:51;;;;;;;7.87;4.70;;;;;;;5.39;100.00;99968.20;1678496;85;21046;-68
2022/09/25 04:23:18;;;;;;;7.20;4.97;;;;;;;5.89;100.00;99957.22;1674267;85;21555;-67
2022/09/25 04:25:44;;;;;;;8.95;4.60;;;;;;;6.48;100.00;99961.60;1678341;84;21081;-67
2022/09/25 04:28:11;;;;;;;7.22;4.65;;;;;;;7.11;100.00;99957.94;1678586;85;21120;-67
2022/09/25 04:30:38;;;;;;;6.15;4.37;;;;;;;7.70;100.00;99955.45;1678425;85;21244;-68
2022/09/25 04:35:50;;;;;;;7.53;4.50;;;;;;;8.24;100.00;99953.06;1678461;85;21246;-66
2022/09/25 04:38:17;;;;;;;6.92;4.65;;;;;;;8.08;100.00;99957.44;1678562;85;21105;-68
2022/09/25 04:40:44;;;;;;;6.85;3.95;;;;;;;8.14;100.00;99978.25;1678577;85;21034;-68
2022/09/25 04:43:11;;;;;;;8.83;4.45;;;;;;;8.28;100.00;99975.22;1678448;85;21569;-67
2022/09/25 04:45:37;;;;;;;5.10;4.20;;;;;;;8.53;100.00;99972.71;1678638;85;21613;-66
2022/09/25 04:48:04;;;;;;;6.45;3.95;;;;;;;8.88;100.00;99981.27;1678613;85;21036;-67
2022/09/25 04:50:31;;;;;;;6.78;4.08;;;;;;;9.34;100.00;99977.09;1678570;85;21062;-68
2022/09/25 04:53:00;;;;;;;5.08;4.05;;;;;;;9.90;100.00;99976.45;1678475;83;21042;-68
2022/09/25 04:55:26;;;;;;;6.65;4.05;;;;;;;10.43;100.00;99977.55;1678401;85;21625;-67
2022/09/25 04:57:56;;;;;;;5.30;4.03;;;;;;;10.87;100.00;99980.19;1678524;85;21591;-69
2022/09/25 05:00:25;;;;;;;5.55;3.55;;;;;;;11.25;100.00;99983.00;1677782;85;21349;-66
2022/09/25 05:02:51;;;;;;;7.28;3.75;;;;;;;11.69;100.00;99989.48;1678197;85;21233;-67
2022/09/25 05:05:18;;;;;;;6.80;3.85;;;;;;;12.19;100.00;99985.05;1678572;85;21052;-67
2022/09/25 05:07:57;;;;;;;8.00;3.83;;;;;;;12.67;100.00;99981.03;1678298;84;21050;-68
2022/09/25 05:10:27;;;;;;;8.03;3.85;;;;;;;13.20;100.00;99976.25;1678107;85;21089;-67
2022/09/25 05:12:57;;;;;;;5.83;3.80;;;;;;;13.64;99.66;99974.46;1678553;85;21219;-67
2022/09/25 05:15:24;;;;;;;5.30;3.40;;;;;;;13.99;94.68;99974.38;1678584;85;21615;-68
2022/09/25 05:17:52;;;;;;;6.12;3.60;;;;;;;14.31;94.51;99974.44;1678447;85;22145;-66
2022/09/25 05:20:19;;;;;;;5.62;3.65;;;;;;;14.68;92.33;99973.74;1651487;85;21588;-67
2022/09/25 05:22:46;;;;;;;4.17;3.25;;;;;;;15.05;90.28;99975.61;1678399;85;21064;-66
2022/09/25 05:25:12;;;;;;;4.58;3.05;;;;;;;15.36;88.68;99979.11;1678410;84;21876;-68
2022/09/25 05:27:39;;;;;;;4.45;3.00;;;;;;;15.72;86.56;99982.23;1678421;85;21113;-69
2022/09/25 05:30:10;;;;;;;4.25;3.25;;;;;;;16.14;85.22;99985.00;1678273;85;21063;-68
2022/09/25 05:32:36;;;;;;;5.22;3.20;;;;;;;16.57;83.40;99985.80;1678416;85;21077;-68
2022/09/25 05:35:04;;;;;;;11.22;2.92;;;;;;;17.07;80.69;99989.27;1678438;85;21600;-68
2022/09/25 05:37:32;;;;;;;3.22;2.77;;;;;;;17.34;68.88;99988.75;1678380;85;21137;-68
2022/09/25 05:39:59;;;;;;;6.00;2.80;;;;;;;17.39;67.88;99990.66;1678269;85;21113;-68
2022/09/25 05:42:25;;;;;;;4.12;2.90;;;;;;;17.55;68.01;99986.92;1678458;85;21052;-69
2022/09/25 05:44:52;;;;;;;5.22;2.72;;;;;;;17.63;65.19;99981.94;1678432;85;21017;-67
2022/09/25 05:47:19;;;;;;;5.62;2.58;;;;;;;17.87;66.60;99985.22;1678338;85;21108;-66
2022/09/25 05:49:45;;;;;;;3.85;2.65;;;;;;;18.24;63.56;99981.69;1678328;85;21231;-68
2022/09/25 05:52:12;;;;;;;8.15;3.08;;;;;;;18.38;61.70;99983.82;1678055;85;21061;-66
2022/09/25 05:54:39;;;;;;;4.55;3.17;;;;;;;18.36;55.42;99981.78;1680239;84;21045;-69
2022/09/25 05:57:06;;;;;;;5.33;3.05;;;;;;;18.56;54.79;99986.49;1660331;86;21017;-68
2022/09/25 05:59:33;;;;;;;3.87;2.87;;;;;;;18.90;53.80;99985.88;1706566;84;21053;-67
2022/09/25 06:02:01;;;;;;;3.98;2.58;;;;;;;19.26;52.73;99988.96;1706360;84;22579;-67
2022/09/25 06:04:28;;;;;;;6.05;3.15;;;;;;;19.58;50.17;99994.98;1706297;84;21001;-68
2022/09/25 06:06:54;;;;;;;4.37;2.92;;;;;;;19.74;50.32;99995.56;1706189;84;21072;-68
2022/09/25 06:09:21;;;;;;;5.72;3.37;;;;;;;19.86;50.01;99983.91;1706650;83;21318;-68
2022/09/25 06:11:48;;;;;;;2.90;2.47;;;;;;;20.16;50.01;99987.81;1706221;84;21016;-67
2022/09/25 06:14:15;;;;;;;2.80;2.42;;;;;;;20.58;47.74;99987.20;1660770;86;21503;-68
2022/09/25 06:16:51;;;;;;;4.25;2.20;;;;;;;20.69;46.67;99984.02;1705971;83;21052;-69
2022/09/25 06:19:17;;;;;;;6.67;2.62;;;;;;;20.92;46.73;99978.61;1660613;86;21075;-68
2022/09/25 06:21:44;;;;;;;3.83;2.75;;;;;;;21.14;44.99;99982.55;1706227;84;21057;-69
2022/09/25 06:24:11;;;;;;;3.85;2.37;;;;;;;21.31;44.13;99982.95;1706375;84;22192;-68
2022/09/25 06:26:37;;;;;;;3.70;2.80;;;;;;;21.36;44.30;99988.77;1706356;84;21299;-68
2022/09/25 06:29:06;;;;;;;3.27;2.30;;;;;;;21.52;43.74;99984.33;1706104;84;21076;-68
2022/09/25 06:31:34;;;;;;;3.95;2.52;;;;;;;21.70;43.69;99979.23;1706285;84;21072;-68
2022/09/25 06:34:01;;;;;;;5.05;2.40;;;;;;;21.96;43.10;99980.98;1706259;84;21052;-70
2022/09/25 06:36:27;;;;;;;4.12;2.42;;;;;;;22.26;42.64;99974.80;1706293;84;21598;-69
2022/09/25 06:38:54;;;;;;;3.22;2.08;;;;;;;22.44;42.09;99984.89;1706429;84;21780;-69
2022/09/25 06:41:22;;;;;;;3.87;2.30;;;;;;;22.67;41.26;99981.48;1706573;84;21092;-68
2022/09/25 06:43:50;;;;;;;4.50;2.47;;;;;;;22.82;40.27;99976.92;1706335;84;21084;-69
2022/09/25 06:46:18;;;;;;;3.20;2.45;;;;;;;22.85;39.96;99988.38;1706466;84;21485;-70
2022/09/25 06:48:54;;;;;;;3.65;2.60;;;;;;;22.80;40.28;99988.80;1660406;86;21595;-68
2022/09/25 06:51:21;;;;;;;3.72;2.30;;;;;;;22.83;39.38;99987.16;1706281;84;21096;-69
2022/09/25 06:53:53;;;;;;;4.50;2.80;;;;;;;22.96;39.87;99986.88;1659910;85;21052;-68
2022/09/25 06:56:20;;;;;;;4.70;2.40;;;;;;;23.17;39.76;99986.30;1722566;83;21093;-71
2022/09/25 06:58:46;;;;;;;4.10;2.17;;;;;;;23.27;39.81;99984.11;1725686;83;21071;-68
2022/09/25 07:01:13;;;;;;;4.15;2.60;;;;;;;23.60;38.83;99997.10;1725636;83;21043;-69
2022/09/25 07:06:47;;;;;;;4.00;2.15;;;;;;;23.48;38.35;99988.82;1794328;79;22678;-69
2022/09/25 07:09:14;;;;;;;3.92;2.67;;;;;;;23.19;38.99;99992.39;1747981;82;20997;-68
2022/09/25 07:11:42;;;;;;;3.25;2.40;;;;;;;23.43;39.21;99995.13;1747851;82;21314;-68
2022/09/25 07:14:09;;;;;;;5.50;2.83;;;;;;;23.85;38.29;99988.08;1748063;82;21029;-69
2022/09/25 07:16:37;;;;;;;3.58;2.90;;;;;;;23.79;36.85;99991.36;1747838;82;21041;-67
2022/09/25 07:19:03;;;;;;;6.78;2.42;;;;;;;23.58;38.20;99993.70;1748145;82;21068;-69
2022/09/25 07:21:31;;;;;;;3.67;2.45;;;;;;;23.82;37.51;99990.56;1748155;82;21061;-68
2022/09/25 07:23:58;;;;;;;3.50;2.65;;;;;;;24.25;37.00;99993.19;1747819;82;21244;-70
2022/09/25 07:26:33;;;;;;;3.20;2.35;;;;;;;24.61;36.02;99981.69;1748079;82;20986;-68
2022/09/25 07:29:03;;;;;;;2.10;1.90;;;;;;;24.75;35.89;99987.06;1748211;81;21105;-70
2022/09/25 07:31:33;;;;;;;3.37;2.42;;;;;;;24.99;34.31;99987.83;1748109;81;21082;-69
2022/09/25 07:34:07;;;;;;;3.95;2.47;;;;;;;24.52;34.94;99983.43;1748219;82;21052;-69
2022/09/25 07:36:30;;;;;;;3.50;2.42;;;;;;;24.47;35.64;99983.05;1718446;82;22273;-67
2022/09/25 07:38:57;;;;;;;3.02;2.33;;;;;;;24.64;35.57;99978.69;1748503;82;21041;-69
2022/09/25 07:41:23;;;;;;;6.75;2.10;;;;;;;24.90;35.15;99976.95;1747856;82;21125;-69
2022/09/25 07:43:57;;;;;;;3.45;1.90;;;;;;;24.84;32.71;99971.33;1748328;82;21596;-69
2022/09/25 07:46:26;;;;;;;2.58;1.82;;;;;;;24.53;33.77;99974.88;1747865;82;21038;-70
2022/09/25 07:48:54;;;;;;;2.75;2.30;;;;;;;24.35;33.17;99968.07;1747525;81;21232;-69
2022/09/25 07:51:21;;;;;;;5.42;2.20;;;;;;;24.03;33.99;99972.87;1747811;82;21077;-69
2022/09/25 07:53:48;;;;;;;4.60;2.20;;;;;;;23.72;34.56;99972.72;1747851;82;21031;-70
2022/09/25 07:56:16;;;;;;;3.58;2.10;;;;;;;23.72;35.60;99972.72;1747908;82;21616;-68
2022/09/25 07:58:42;;;;;;;7.28;2.60;;;;;;;24.16;35.01;99981.13;1747855;82;21069;-70
2022/09/25 08:01:11;;;;;;;3.85;2.27;;;;;;;24.29;34.46;99969.50;1747736;82;21240;-69
2022/09/25 08:03:38;;;;;;;4.55;2.33;;;;;;;24.52;34.40;99975.36;1747770;82;21045;-70
2022/09/25 08:06:12;;;;;;;3.00;2.02;;;;;;;24.67;33.72;99975.71;1748045;82;21605;-70
2022/09/25 08:08:40;;;;;;;2.05;1.67;;;;;;;24.56;33.83;99975.91;1748625;81;21109;-69
2022/09/25 08:11:11;;;;;;;2.75;1.80;;;;;;;24.32;33.11;99978.64;1748674;81;21547;-69
2022/09/25 08:13:38;;;;;;;3.92;1.82;;;;;;;24.38;32.42;99983.41;1748649;82;21128;-70
2022/09/25 08:16:12;;;;;;;2.45;1.85;;;;;;;24.46;32.22;99978.13;1748507;81;21032;-70
2022/09/25 08:18:40;;;;;;;2.95;1.87;;;;;;;24.11;33.28;99980.69;1720385;82;21529;-69
2022/09/25 08:21:08;;;;;;;2.85;2.08;;;;;;;23.90;33.76;99976.38;1748333;82;21076;-68
2022/09/25 08:23:35;;;;;;;3.80;1.62;;;;;;;24.13;34.20;99980.05;1748175;82;21229;-69
2022/09/25 08:26:02;;;;;;;5.60;1.70;;;;;;;24.49;33.65;99983.23;1747943;82;21137;-69
2022/09/25 08:28:29;;;;;;;2.05;1.67;;;;;;;24.54;32.50;99965.80;1748067;82;21033;-67
2022/09/25 08:30:58;;;;;;;1.60;1.50;;;;;;;24.28;33.05;99975.89;1748032;81;21001;-69
2022/09/25 08:33:25;;;;;;;5.17;2.20;;;;;;;23.85;33.84;99976.81;1748426;82;21045;-70
2022/09/25 08:36:01;;;;;;;3.40;2.27;;;;;;;23.33;34.25;99972.77;1748057;82;21029;-68
2022/09/25 08:38:31;;;;;;;2.12;1.80;;;;;;;22.54;35.40;99979.05;1748326;82;21105;-68
2022/09/25 08:41:08;;;;;;;4.23;2.00;;;;;;;21.78;36.61;99970.02;1748194;82;21134;-67
2022/09/25 08:43:39;;;;;;;2.98;1.70;;;;;;;21.24;37.59;99975.08;1748386;82;21038;-69
2022/09/25 08:49:02;;;;;;;2.95;2.00;;;;;;;20.97;39.13;99971.03;1748026;82;21055;-70
2022/09/25 08:51:32;;;;;;;7.53;2.08;;;;;;;21.37;39.06;99973.03;1748203;81;21666;-71
2022/09/25 08:53:59;;;;;;;4.22;2.08;;;;;;;21.76;37.91;99967.96;1747305;82;21548;-69
2022/09/25 08:56:27;;;;;;;3.37;1.70;;;;;;;22.13;37.43;99954.90;1721779;82;22189;-69
2022/09/25 08:59:28;;;;;;;2.58;1.67;;;;;;;22.66;36.46;99955.15;1718416;83;21018;-69
2022/09/25 09:01:59;;;;;;;3.65;2.00;;;;;;;22.96;36.25;99959.55;1718243;83;21601;-70
2022/09/25 09:04:38;;;;;;;2.20;1.70;;;;;;;23.28;35.97;99962.95;1718997;83;21720;-70
2022/09/25 09:07:10;;;;;;;2.20;1.52;;;;;;;23.61;35.52;99963.84;1706258;83;21074;-69
2022/09/25 09:09:45;;;;;;;1.70;1.60;;;;;;;23.43;34.82;99962.87;1684933;84;21049;-69
2022/09/25 09:12:16;;;;;;;2.92;1.80;;;;;;;23.31;34.22;99954.63;1704597;84;21066;-68
2022/09/25 09:14:47;;;;;;;3.77;1.80;;;;;;;23.22;34.78;99954.98;1704528;84;21089;-67
2022/09/25 09:17:22;;;;;;;3.25;1.60;;;;;;;23.34;34.70;99957.02;1704679;84;21205;-69
2022/09/25 09:19:58;;;;;;;4.03;2.00;;;;;;;23.38;34.40;99949.03;1704909;84;21054;-69
2022/09/25 09:22:31;;;;;;;2.47;1.52;;;;;;;23.71;35.19;99944.98;1704099;83;21065;-69
2022/09/25 09:25:28;;;;;;;1.60;1.40;;;;;;;24.11;32.68;99941.69;1704512;84;21014;-69
2022/09/25 09:28:21;;;;;;;2.00;1.52;;;;;;;24.52;32.07;99942.22;1704611;84;21053;-67
2022/09/25 09:31:08;;;;;;;2.22;1.40;;;;;;;24.77;31.24;99937.43;1668790;83;21803;-68
2022/09/25 09:34:10;;;;;;;2.92;1.40;;;;;;;24.65;31.88;99935.97;1704736;84;20999;-68
2022/09/25 09:37:18;;;;;;;4.60;1.62;;;;;;;24.11;32.67;99943.03;1704657;84;21042;-68
2022/09/25 09:39:53;;;;;;;2.75;1.55;;;;;;;24.26;32.29;99937.52;1704621;84;21026;-68
2022/09/25 09:42:39;;;;;;;3.60;1.62;;;;;;;24.63;32.02;99937.45;1704000;83;21697;-68
2022/09/25 09:45:23;;;;;;;2.17;1.40;;;;;;;24.49;31.88;99936.13;1642434;83;21654;-68
2022/09/25 09:48:27;;;;;;;3.70;1.42;;;;;;;24.05;31.89;99937.26;1704180;84;21073;-68
2022/09/25 09:50:59;;;;;;;2.12;1.42;;;;;;;23.80;32.76;99944.64;1712993;82;21018;-68
2022/09/25 09:53:39;;;;;;;3.05;1.37;;;;;;;23.49;33.30;99932.75;1733909;82;21069;-69
2022/09/25 09:56:20;;;;;;;3.87;1.40;;;;;;;23.52;33.40;99935.14;1733743;82;21109;-70
2022/09/25 09:58:54;;;;;;;1.52;1.42;;;;;;;23.53;32.88;99938.67;1734086;82;21328;-71
2022/09/25 10:01:25;;;;;;;1.72;1.55;;;;;;;23.44;32.93;99935.88;1733874;82;21515;-69
2022/09/25 10:04:14;;;;;;;2.92;1.37;;;;;;;22.81;32.91;99933.59;1734167;82;21085;-69
2022/09/25 10:06:53;;;;;;;1.25;1.15;;;;;;;22.05;34.44;99926.55;1733841;81;21046;-69
2022/09/25 10:09:19;;;;;;;3.00;1.80;;;;;;;21.53;35.21;99929.28;1734034;82;21050;-69
2022/09/25 10:11:49;;;;;;;3.00;1.42;;;;;;;21.11;36.34;99940.44;1733909;82;21273;-68
2022/09/25 10:14:21;;;;;;;3.87;2.15;;;;;;;20.40;37.04;99934.67;1733974;82;21104;-69
2022/09/25 10:16:49;;;;;;;3.20;1.80;;;;;;;19.86;38.29;99930.95;1734002;82;21066;-68
2022/09/25 10:19:25;;;;;;;2.92;1.60;;;;;;;19.54;39.96;99937.45;1734000;82;21575;-68
2022/09/25 10:22:08;;;;;;;4.97;1.90;;;;;;;19.50;40.09;99936.33;1733144;82;21620;-69
2022/09/25 10:24:50;;;;;;;2.62;1.62;;;;;;;19.43;40.39;99936.94;1714983;82;21226;-68
2022/09/25 10:27:27;;;;;;;2.72;1.98;;;;;;;19.27;40.25;99931.92;1734151;82;21010;-67
2022/09/25 10:30:19;;;;;;;3.47;1.95;;;;;;;18.90;41.30;99932.52;1733760;82;21058;-68
2022/09/25 10:32:59;;;;;;;3.22;1.72;;;;;;;18.72;42.43;99940.88;1734288;81;21468;-69
2022/09/25 10:35:47;;;;;;;3.87;2.15;;;;;;;18.49;42.94;99929.24;1733998;82;21086;-67
2022/09/25 10:38:37;;;;;;;3.15;2.20;;;;;;;18.30;43.52;99939.55;1733869;82;21146;-68
2022/09/25 10:41:10;;;;;;;5.10;1.95;;;;;;;18.18;43.74;99936.80;1733812;82;21035;-69
2022/09/25 10:44:00;;;;;;;3.25;2.08;;;;;;;18.04;44.53;99940.95;1733811;82;21066;-67
2022/09/25 10:52:08;;;;;;;3.08;1.90;;;;;;;17.84;45.82;99932.17;1734019;82;21879;-67
2022/09/25 10:54:35;;;;;;;3.15;1.92;;;;;;;18.51;45.32;99928.65;1730327;82;21053;-67
2022/09/25 10:57:17;;;;;;;2.98;1.60;;;;;;;18.93;43.24;99925.13;1704666;84;21102;-68
2022/09/25 10:59:48;;;;;;;2.42;1.50;;;;;;;19.35;42.41;99922.84;1731309;82;21601;-68
2022/09/25 11:02:37;;;;;;;3.02;1.72;;;;;;;19.80;41.50;99905.55;1734365;82;21042;-69
2022/09/25 11:05:15;;;;;;;2.30;1.85;;;;;;;20.05;40.07;99903.61;1734119;82;22024;-68
2022/09/25 11:07:53;;;;;;;2.92;1.52;;;;;;;20.52;39.68;99893.53;1744449;81;21715;-69
2022/09/25 11:10:22;;;;;;;2.77;1.32;;;;;;;20.82;38.77;99901.37;1747808;82;21633;-68
2022/09/25 11:12:50;;;;;;;1.62;1.32;;;;;;;21.05;37.01;99883.38;1747737;82;21042;-68
2022/09/25 11:15:20;;;;;;;2.55;1.70;;;;;;;20.99;36.82;99910.19;1747754;82;21046;-69
2022/09/25 11:17:50;;;;;;;2.25;1.22;;;;;;;20.84;36.90;99900.27;1747922;82;21053;-68
2022/09/25 11:20:28;;;;;;;2.85;1.60;;;;;;;20.68;37.10;99906.06;1748097;82;21097;-69
2022/09/25 11:23:27;;;;;;;3.70;1.65;;;;;;;20.76;37.51;99910.77;1747737;82;21061;-69
2022/09/25 11:26:09;;;;;;;2.80;1.82;;;;;;;20.94;36.96;99907.90;1747847;82;21062;-69
2022/09/25 11:29:02;;;;;;;2.35;1.82;;;;;;;21.19;36.78;99895.59;1747711;82;21057;-68
2022/09/25 11:31:46;;;;;;;2.27;1.60;;;;;;;21.47;35.73;99890.95;1747963;82;21267;-68
2022/09/25 11:34:34;;;;;;;2.72;1.65;;;;;;;21.37;35.53;99899.38;1747898;82;21092;-68
2022/09/25 11:37:32;;;;;;;4.17;1.45;;;;;;;21.21;36.12;99892.30;1747714;82;21006;-69
2022/09/25 11:43:05;;;;;;;2.95;1.67;;;;;;;20.73;35.85;99897.16;1747799;82;21068;-69
2022/09/25 11:45:43;;;;;;;3.12;1.62;;;;;;;20.21;37.03;99889.37;1747929;82;21526;-69
2022/09/25 11:48:18;;;;;;;2.47;1.52;;;;;;;19.93;38.28;99893.42;1747155;82;21046;-67
2022/09/25 11:51:16;;;;;;;2.17;1.37;;;;;;;19.77;39.19;99898.28;1747838;81;21077;-66
2022/09/25 11:54:14;;;;;;;2.95;1.50;;;;;;;19.71;39.64;99896.93;1745915;82;21109;-68
2022/09/25 11:56:52;;;;;;;2.08;1.32;;;;;;;19.52;38.94;99896.16;1718504;82;21147;-68
2022/09/25 12:00:08;;;;;;;2.20;1.50;;;;;;;19.16;39.69;99901.19;1717939;83;21968;-69
2022/09/25 12:03:08;;;;;;;2.83;1.70;;;;;;;18.93;40.37;99898.44;1718243;83;21010;-67
2022/09/25 12:05:52;;;;;;;2.50;1.50;;;;;;;18.73;40.80;99893.74;1718004;83;21112;-67
2022/09/25 12:09:03;;;;;;;2.10;1.47;;;;;;;18.74;41.41;99895.44;1704934;83;21050;-68
2022/09/25 12:11:44;;;;;;;2.60;1.97;;;;;;;18.71;41.37;99901.01;1704595;83;21093;-68
2022/09/25 12:14:19;;;;;;;2.62;1.75;;;;;;;18.71;41.37;99901.01;1670321;85;21856;-69
2022/09/25 12:17:18;;;;;;;4.45;1.42;;;;;;;18.66;41.99;99897.34;1704435;84;21560;-70
2022/09/25 12:20:23;;;;;;;4.72;1.60;;;;;;;18.51;41.64;99897.98;1704660;84;21561;-67
2022/09/25 12:23:24;;;;;;;3.87;1.80;;;;;;;18.34;42.18;99897.06;1704282;84;21565;-70
2022/09/25 12:26:35;;;;;;;1.70;1.60;;;;;;;18.20;43.15;99895.39;1704639;84;22167;-67
2022/09/25 12:29:18;;;;;;;;;;;;;;;18.08;43.26;99898.44;1680808;83;21140;-67